sensor_id;sensor_type;location;lat;lon;timestamp;P1;durP1;ratioP1;P2;durP2;ratioP2
15708;SDS011;7954;51.914;8.420;2023-10-19T00:02:05;6.70;;;6.00;;
15708;SDS011;7954;51.914;8.420;2023-10-19T00:04:33;6.60;;;6.00;;
15708;SDS011;7954;51.914;8.420;2023-10-19T00:07:02;7.07;;;5.67;;
15708;SDS011;7954;51.914;8.420;2023-10-19T00:09:33;6.63;;;6.03;;
15708;SDS011;7954;51.914;8.420;2023-10-19T00:12:06;6.10;;;5.60;;
15708;SDS011;7954;51.914;8.420;2023-10-19T00:14:35;6.17;;;5.57;;
15708;SDS011;7954;51.914;8.420;2023-10-19T00:17:02;6.63;;;5.83;;
15708;SDS011;7954;51.914;8.420;2023-10-19T00:19:32;6.23;;;5.63;;
15708;SDS011;7954;51.914;8.420;2023-10-19T00:22:06;6.63;;;6.03;;
15708;SDS011;7954;51.914;8.420;2023-10-19T00:24:42;6.87;;;6.00;;
15708;SDS011;7954;51.914;8.420;2023-10-19T00:27:13;6.63;;;6.03;;
15708;SDS011;7954;51.914;8.420;2023-10-19T00:29:43;6.23;;;5.63;;
15708;SDS011;7954;51.914;8.420;2023-10-19T00:32:16;6.83;;;6.13;;
15708;SDS011;7954;51.914;8.420;2023-10-19T00:34:45;6.70;;;5.93;;
15708;SDS011;7954;51.914;8.420;2023-10-19T00:37:18;6.63;;;6.00;;
15708;SDS011;7954;51.914;8.420;2023-10-19T00:39:53;5.90;;;5.40;;
15708;SDS011;7954;51.914;8.420;2023-10-19T00:42:24;6.93;;;6.23;;
15708;SDS011;7954;51.914;8.420;2023-10-19T00:44:58;5.87;;;5.37;;
15708;SDS011;7954;51.914;8.420;2023-10-19T00:47:31;6.63;;;6.03;;
15708;SDS011;7954;51.914;8.420;2023-10-19T00:50:07;6.73;;;6.03;;
15708;SDS011;7954;51.914;8.420;2023-10-19T00:52:40;6.60;;;5.90;;
15708;SDS011;7954;51.914;8.420;2023-10-19T00:55:12;6.33;;;5.80;;
15708;SDS011;7954;51.914;8.420;2023-10-19T00:57:43;6.33;;;5.73;;
15708;SDS011;7954;51.914;8.420;2023-10-19T01:00:15;6.33;;;5.83;;
15708;SDS011;7954;51.914;8.420;2023-10-19T01:02:56;6.20;;;5.63;;
15708;SDS011;7954;51.914;8.420;2023-10-19T01:05:27;6.87;;;6.23;;
15708;SDS011;7954;51.914;8.420;2023-10-19T01:08:02;6.27;;;5.67;;
15708;SDS011;7954;51.914;8.420;2023-10-19T01:10:40;6.70;;;6.00;;
15708;SDS011;7954;51.914;8.420;2023-10-19T01:13:13;6.30;;;5.70;;
15708;SDS011;7954;51.914;8.420;2023-10-19T01:15:42;6.67;;;6.03;;
15708;SDS011;7954;51.914;8.420;2023-10-19T01:18:15;5.90;;;5.40;;
15708;SDS011;7954;51.914;8.420;2023-10-19T01:20:44;6.30;;;5.70;;
15708;SDS011;7954;51.914;8.420;2023-10-19T01:23:18;6.43;;;5.83;;
15708;SDS011;7954;51.914;8.420;2023-10-19T01:25:53;6.27;;;5.67;;
15708;SDS011;7954;51.914;8.420;2023-10-19T01:28:32;6.83;;;6.13;;
15708;SDS011;7954;51.914;8.420;2023-10-19T01:31:11;6.57;;;5.97;;
15708;SDS011;7954;51.914;8.420;2023-10-19T01:33:42;6.07;;;5.47;;
15708;SDS011;7954;51.914;8.420;2023-10-19T01:36:10;6.33;;;5.60;;
15708;SDS011;7954;51.914;8.420;2023-10-19T01:38:38;6.17;;;5.57;;
15708;SDS011;7954;51.914;8.420;2023-10-19T01:41:07;5.50;;;5.00;;
15708;SDS011;7954;51.914;8.420;2023-10-19T01:43:40;6.00;;;5.33;;
15708;SDS011;7954;51.914;8.420;2023-10-19T01:46:10;5.90;;;5.30;;
15708;SDS011;7954;51.914;8.420;2023-10-19T01:48:49;5.90;;;5.30;;
15708;SDS011;7954;51.914;8.420;2023-10-19T01:51:20;6.10;;;5.60;;
15708;SDS011;7954;51.914;8.420;2023-10-19T01:53:50;5.90;;;5.40;;
15708;SDS011;7954;51.914;8.420;2023-10-19T01:56:18;6.13;;;5.53;;
15708;SDS011;7954;51.914;8.420;2023-10-19T01:58:46;6.20;;;5.70;;
15708;SDS011;7954;51.914;8.420;2023-10-19T02:01:14;6.00;;;5.50;;
15708;SDS011;7954;51.914;8.420;2023-10-19T02:03:48;5.73;;;4.90;;
15708;SDS011;7954;51.914;8.420;2023-10-19T02:06:19;7.00;;;6.00;;
15708;SDS011;7954;51.914;8.420;2023-10-19T02:08:48;5.90;;;5.40;;
15708;SDS011;7954;51.914;8.420;2023-10-19T02:11:20;5.53;;;5.03;;
15708;SDS011;7954;51.914;8.420;2023-10-19T02:13:48;6.37;;;5.80;;
15708;SDS011;7954;51.914;8.420;2023-10-19T02:16:17;5.90;;;5.30;;
15708;SDS011;7954;51.914;8.420;2023-10-19T02:18:47;6.00;;;5.50;;
15708;SDS011;7954;51.914;8.420;2023-10-19T02:21:16;6.77;;;5.50;;
15708;SDS011;7954;51.914;8.420;2023-10-19T02:23:48;5.73;;;5.23;;
15708;SDS011;7954;51.914;8.420;2023-10-19T02:26:17;5.57;;;5.07;;
15708;SDS011;7954;51.914;8.420;2023-10-19T02:28:45;5.87;;;5.37;;
15708;SDS011;7954;51.914;8.420;2023-10-19T02:31:14;5.33;;;4.87;;
15708;SDS011;7954;51.914;8.420;2023-10-19T02:33:46;6.03;;;5.20;;
15708;SDS011;7954;51.914;8.420;2023-10-19T02:36:18;5.87;;;5.37;;
15708;SDS011;7954;51.914;8.420;2023-10-19T02:38:46;6.10;;;4.87;;
15708;SDS011;7954;51.914;8.420;2023-10-19T02:41:15;5.40;;;4.87;;
15708;SDS011;7954;51.914;8.420;2023-10-19T02:43:45;4.97;;;4.57;;
15708;SDS011;7954;51.914;8.420;2023-10-19T02:46:13;5.50;;;5.00;;
15708;SDS011;7954;51.914;8.420;2023-10-19T02:48:43;5.20;;;4.70;;
15708;SDS011;7954;51.914;8.420;2023-10-19T02:51:11;4.97;;;4.57;;
15708;SDS011;7954;51.914;8.420;2023-10-19T02:53:39;5.00;;;4.50;;
15708;SDS011;7954;51.914;8.420;2023-10-19T02:56:10;4.93;;;4.53;;
15708;SDS011;7954;51.914;8.420;2023-10-19T02:58:42;4.90;;;4.50;;
15708;SDS011;7954;51.914;8.420;2023-10-19T03:01:15;5.00;;;4.60;;
15708;SDS011;7954;51.914;8.420;2023-10-19T03:03:47;4.83;;;4.17;;
15708;SDS011;7954;51.914;8.420;2023-10-19T03:06:19;4.47;;;4.13;;
15708;SDS011;7954;51.914;8.420;2023-10-19T03:08:47;4.93;;;4.50;;
15708;SDS011;7954;51.914;8.420;2023-10-19T03:11:15;4.40;;;4.00;;
15708;SDS011;7954;51.914;8.420;2023-10-19T03:13:43;4.90;;;4.47;;
15708;SDS011;7954;51.914;8.420;2023-10-19T03:16:10;4.40;;;4.00;;
15708;SDS011;7954;51.914;8.420;2023-10-19T03:18:40;5.27;;;4.40;;
15708;SDS011;7954;51.914;8.420;2023-10-19T03:21:07;4.53;;;3.80;;
15708;SDS011;7954;51.914;8.420;2023-10-19T03:23:37;4.07;;;3.70;;
15708;SDS011;7954;51.914;8.420;2023-10-19T03:26:04;3.80;;;3.50;;
15708;SDS011;7954;51.914;8.420;2023-10-19T03:28:54;3.90;;;3.60;;
15708;SDS011;7954;51.914;8.420;2023-10-19T03:31:28;4.20;;;3.80;;
15708;SDS011;7954;51.914;8.420;2023-10-19T03:34:01;3.70;;;3.40;;
15708;SDS011;7954;51.914;8.420;2023-10-19T03:36:32;4.00;;;3.63;;
15708;SDS011;7954;51.914;8.420;2023-10-19T03:39:00;3.47;;;3.27;;
15708;SDS011;7954;51.914;8.420;2023-10-19T03:41:39;4.43;;;4.10;;
15708;SDS011;7954;51.914;8.420;2023-10-19T03:44:08;3.67;;;3.37;;
15708;SDS011;7954;51.914;8.420;2023-10-19T03:46:43;3.80;;;3.50;;
15708;SDS011;7954;51.914;8.420;2023-10-19T03:49:23;3.80;;;3.50;;
15708;SDS011;7954;51.914;8.420;2023-10-19T03:51:53;4.10;;;3.70;;
15708;SDS011;7954;51.914;8.420;2023-10-19T03:54:27;3.43;;;3.23;;
15708;SDS011;7954;51.914;8.420;2023-10-19T03:56:56;3.83;;;3.50;;
15708;SDS011;7954;51.914;8.420;2023-10-19T03:59:32;3.73;;;3.43;;
15708;SDS011;7954;51.914;8.420;2023-10-19T04:02:00;3.97;;;3.63;;
15708;SDS011;7954;51.914;8.420;2023-10-19T04:04:35;3.97;;;3.67;;
15708;SDS011;7954;51.914;8.420;2023-10-19T04:07:05;3.97;;;3.57;;
15708;SDS011;7954;51.914;8.420;2023-10-19T04:09:38;3.87;;;3.57;;
15708;SDS011;7954;51.914;8.420;2023-10-19T04:12:24;3.80;;;3.50;;
15708;SDS011;7954;51.914;8.420;2023-10-19T04:14:51;3.80;;;3.50;;
15708;SDS011;7954;51.914;8.420;2023-10-19T04:17:19;3.70;;;3.30;;
15708;SDS011;7954;51.914;8.420;2023-10-19T04:19:51;3.90;;;3.60;;
15708;SDS011;7954;51.914;8.420;2023-10-19T04:22:19;4.00;;;3.60;;
15708;SDS011;7954;51.914;8.420;2023-10-19T04:24:50;3.80;;;3.50;;
15708;SDS011;7954;51.914;8.420;2023-10-19T04:27:18;4.00;;;3.53;;
15708;SDS011;7954;51.914;8.420;2023-10-19T04:29:47;3.60;;;3.30;;
15708;SDS011;7954;51.914;8.420;2023-10-19T04:32:16;4.07;;;3.70;;
15708;SDS011;7954;51.914;8.420;2023-10-19T04:34:53;4.27;;;3.90;;
15708;SDS011;7954;51.914;8.420;2023-10-19T04:37:21;3.73;;;3.43;;
15708;SDS011;7954;51.914;8.420;2023-10-19T04:39:50;3.70;;;3.40;;
15708;SDS011;7954;51.914;8.420;2023-10-19T04:42:18;3.90;;;3.60;;
15708;SDS011;7954;51.914;8.420;2023-10-19T04:44:49;3.60;;;3.30;;
15708;SDS011;7954;51.914;8.420;2023-10-19T04:47:17;3.97;;;3.57;;
15708;SDS011;7954;51.914;8.420;2023-10-19T04:49:45;3.50;;;3.20;;
15708;SDS011;7954;51.914;8.420;2023-10-19T04:52:14;4.30;;;3.90;;
15708;SDS011;7954;51.914;8.420;2023-10-19T04:54:43;3.27;;;2.97;;
15708;SDS011;7954;51.914;8.420;2023-10-19T04:57:11;3.73;;;3.43;;
15708;SDS011;7954;51.914;8.420;2023-10-19T04:59:39;3.90;;;3.60;;
15708;SDS011;7954;51.914;8.420;2023-10-19T05:02:11;3.73;;;3.43;;
15708;SDS011;7954;51.914;8.420;2023-10-19T05:04:40;4.00;;;3.47;;
15708;SDS011;7954;51.914;8.420;2023-10-19T05:07:08;3.77;;;3.47;;
15708;SDS011;7954;51.914;8.420;2023-10-19T05:09:40;3.77;;;3.47;;
15708;SDS011;7954;51.914;8.420;2023-10-19T05:12:07;4.00;;;3.67;;
15708;SDS011;7954;51.914;8.420;2023-10-19T05:14:35;3.57;;;3.27;;
15708;SDS011;7954;51.914;8.420;2023-10-19T05:17:04;4.10;;;3.80;;
15708;SDS011;7954;51.914;8.420;2023-10-19T05:19:33;3.80;;;3.50;;
15708;SDS011;7954;51.914;8.420;2023-10-19T05:22:04;4.20;;;3.80;;
15708;SDS011;7954;51.914;8.420;2023-10-19T05:24:32;3.40;;;3.10;;
15708;SDS011;7954;51.914;8.420;2023-10-19T05:27:03;3.70;;;3.33;;
15708;SDS011;7954;51.914;8.420;2023-10-19T05:29:32;3.93;;;3.60;;
15708;SDS011;7954;51.914;8.420;2023-10-19T05:32:00;3.60;;;3.30;;
15708;SDS011;7954;51.914;8.420;2023-10-19T05:34:30;3.60;;;3.30;;
15708;SDS011;7954;51.914;8.420;2023-10-19T05:36:59;3.80;;;3.50;;
15708;SDS011;7954;51.914;8.420;2023-10-19T05:39:28;3.63;;;3.33;;
15708;SDS011;7954;51.914;8.420;2023-10-19T05:41:57;3.50;;;3.20;;
15708;SDS011;7954;51.914;8.420;2023-10-19T05:44:29;3.73;;;3.43;;
15708;SDS011;7954;51.914;8.420;2023-10-19T05:46:57;4.10;;;3.53;;
15708;SDS011;7954;51.914;8.420;2023-10-19T05:49:26;3.80;;;3.10;;
15708;SDS011;7954;51.914;8.420;2023-10-19T05:51:55;3.47;;;3.17;;
15708;SDS011;7954;51.914;8.420;2023-10-19T05:54:23;2.93;;;2.73;;
15708;SDS011;7954;51.914;8.420;2023-10-19T05:56:51;3.47;;;3.17;;
15708;SDS011;7954;51.914;8.420;2023-10-19T05:59:20;2.77;;;2.57;;
15708;SDS011;7954;51.914;8.420;2023-10-19T06:01:49;3.00;;;2.80;;
15708;SDS011;7954;51.914;8.420;2023-10-19T06:04:18;3.13;;;2.93;;
15708;SDS011;7954;51.914;8.420;2023-10-19T06:06:47;3.10;;;2.90;;
15708;SDS011;7954;51.914;8.420;2023-10-19T06:09:15;3.23;;;2.87;;
15708;SDS011;7954;51.914;8.420;2023-10-19T06:11:44;3.50;;;3.20;;
15708;SDS011;7954;51.914;8.420;2023-10-19T06:14:12;3.07;;;2.87;;
15708;SDS011;7954;51.914;8.420;2023-10-19T06:16:40;3.33;;;3.03;;
15708;SDS011;7954;51.914;8.420;2023-10-19T06:19:09;3.27;;;2.97;;
15708;SDS011;7954;51.914;8.420;2023-10-19T06:21:38;3.70;;;3.13;;
15708;SDS011;7954;51.914;8.420;2023-10-19T06:24:06;2.90;;;2.63;;
15708;SDS011;7954;51.914;8.420;2023-10-19T06:26:34;3.50;;;3.20;;
15708;SDS011;7954;51.914;8.420;2023-10-19T06:29:04;3.27;;;2.97;;
15708;SDS011;7954;51.914;8.420;2023-10-19T06:31:32;3.20;;;2.90;;
15708;SDS011;7954;51.914;8.420;2023-10-19T06:34:00;3.13;;;2.87;;
15708;SDS011;7954;51.914;8.420;2023-10-19T06:36:29;3.07;;;2.80;;
15708;SDS011;7954;51.914;8.420;2023-10-19T06:38:57;3.23;;;2.93;;
15708;SDS011;7954;51.914;8.420;2023-10-19T06:41:25;3.43;;;3.10;;
15708;SDS011;7954;51.914;8.420;2023-10-19T06:43:53;3.47;;;2.80;;
15708;SDS011;7954;51.914;8.420;2023-10-19T06:46:22;2.93;;;2.73;;
15708;SDS011;7954;51.914;8.420;2023-10-19T06:48:50;3.40;;;3.10;;
15708;SDS011;7954;51.914;8.420;2023-10-19T06:51:22;3.27;;;2.97;;
15708;SDS011;7954;51.914;8.420;2023-10-19T06:53:55;3.13;;;2.83;;
15708;SDS011;7954;51.914;8.420;2023-10-19T06:56:24;3.40;;;3.10;;
15708;SDS011;7954;51.914;8.420;2023-10-19T06:58:52;3.57;;;3.17;;
15708;SDS011;7954;51.914;8.420;2023-10-19T07:01:21;3.37;;;3.07;;
15708;SDS011;7954;51.914;8.420;2023-10-19T07:03:52;3.90;;;3.30;;
15708;SDS011;7954;51.914;8.420;2023-10-19T07:06:23;3.20;;;2.90;;
15708;SDS011;7954;51.914;8.420;2023-10-19T07:08:51;3.73;;;3.37;;
15708;SDS011;7954;51.914;8.420;2023-10-19T07:11:20;4.37;;;2.97;;
15708;SDS011;7954;51.914;8.420;2023-10-19T07:13:50;3.13;;;2.67;;
15708;SDS011;7954;51.914;8.420;2023-10-19T07:16:18;2.70;;;2.50;;
15708;SDS011;7954;51.914;8.420;2023-10-19T07:18:46;3.40;;;2.80;;
15708;SDS011;7954;51.914;8.420;2023-10-19T07:21:14;3.03;;;2.70;;
15708;SDS011;7954;51.914;8.420;2023-10-19T07:23:43;3.47;;;2.60;;
15708;SDS011;7954;51.914;8.420;2023-10-19T07:26:12;2.80;;;2.60;;
15708;SDS011;7954;51.914;8.420;2023-10-19T07:28:42;2.80;;;2.60;;
15708;SDS011;7954;51.914;8.420;2023-10-19T07:31:10;3.77;;;2.70;;
15708;SDS011;7954;51.914;8.420;2023-10-19T07:33:42;2.93;;;2.60;;
15708;SDS011;7954;51.914;8.420;2023-10-19T07:36:12;2.73;;;2.47;;
15708;SDS011;7954;51.914;8.420;2023-10-19T07:38:41;3.23;;;2.67;;
15708;SDS011;7954;51.914;8.420;2023-10-19T07:41:10;2.90;;;2.70;;
15708;SDS011;7954;51.914;8.420;2023-10-19T07:43:38;2.73;;;2.53;;
15708;SDS011;7954;51.914;8.420;2023-10-19T07:46:07;2.50;;;2.30;;
15708;SDS011;7954;51.914;8.420;2023-10-19T07:48:35;3.67;;;2.47;;
15708;SDS011;7954;51.914;8.420;2023-10-19T07:51:04;2.30;;;2.20;;
15708;SDS011;7954;51.914;8.420;2023-10-19T07:53:32;2.30;;;2.10;;
15708;SDS011;7954;51.914;8.420;2023-10-19T07:56:02;2.37;;;2.17;;
15708;SDS011;7954;51.914;8.420;2023-10-19T07:58:30;2.10;;;2.00;;
15708;SDS011;7954;51.914;8.420;2023-10-19T08:00:58;3.53;;;2.53;;
15708;SDS011;7954;51.914;8.420;2023-10-19T08:03:27;2.73;;;2.47;;
15708;SDS011;7954;51.914;8.420;2023-10-19T08:05:55;2.37;;;2.10;;
15708;SDS011;7954;51.914;8.420;2023-10-19T08:08:23;2.53;;;2.33;;
15708;SDS011;7954;51.914;8.420;2023-10-19T08:10:51;2.30;;;2.00;;
15708;SDS011;7954;51.914;8.420;2023-10-19T08:13:20;2.43;;;2.23;;
15708;SDS011;7954;51.914;8.420;2023-10-19T08:15:50;2.30;;;2.10;;
15708;SDS011;7954;51.914;8.420;2023-10-19T08:18:18;2.07;;;1.90;;
15708;SDS011;7954;51.914;8.420;2023-10-19T08:20:48;3.33;;;2.23;;
15708;SDS011;7954;51.914;8.420;2023-10-19T08:23:17;2.93;;;2.07;;
15708;SDS011;7954;51.914;8.420;2023-10-19T08:25:49;2.30;;;2.10;;
15708;SDS011;7954;51.914;8.420;2023-10-19T08:28:22;2.17;;;1.97;;
15708;SDS011;7954;51.914;8.420;2023-10-19T08:30:50;2.37;;;2.17;;
15708;SDS011;7954;51.914;8.420;2023-10-19T08:33:27;1.97;;;1.83;;
15708;SDS011;7954;51.914;8.420;2023-10-19T08:35:58;2.17;;;1.97;;
15708;SDS011;7954;51.914;8.420;2023-10-19T08:38:27;2.80;;;1.83;;
15708;SDS011;7954;51.914;8.420;2023-10-19T08:40:55;2.60;;;2.00;;
15708;SDS011;7954;51.914;8.420;2023-10-19T08:43:23;2.97;;;2.20;;
15708;SDS011;7954;51.914;8.420;2023-10-19T08:45:52;3.17;;;1.90;;
15708;SDS011;7954;51.914;8.420;2023-10-19T08:48:21;2.57;;;2.10;;
15708;SDS011;7954;51.914;8.420;2023-10-19T08:50:49;3.63;;;2.00;;
15708;SDS011;7954;51.914;8.420;2023-10-19T08:53:19;2.20;;;1.93;;
15708;SDS011;7954;51.914;8.420;2023-10-19T08:55:48;2.47;;;2.10;;
15708;SDS011;7954;51.914;8.420;2023-10-19T08:58:17;1.93;;;1.83;;
15708;SDS011;7954;51.914;8.420;2023-10-19T09:00:46;3.80;;;1.90;;
15708;SDS011;7954;51.914;8.420;2023-10-19T09:03:16;2.17;;;1.97;;
15708;SDS011;7954;51.914;8.420;2023-10-19T09:05:45;3.47;;;1.80;;
15708;SDS011;7954;51.914;8.420;2023-10-19T09:08:14;3.20;;;2.00;;
15708;SDS011;7954;51.914;8.420;2023-10-19T09:10:45;2.30;;;1.80;;
15708;SDS011;7954;51.914;8.420;2023-10-19T09:13:13;2.10;;;1.90;;
15708;SDS011;7954;51.914;8.420;2023-10-19T09:15:47;1.83;;;1.70;;
15708;SDS011;7954;51.914;8.420;2023-10-19T09:18:16;7.37;;;1.90;;
15708;SDS011;7954;51.914;8.420;2023-10-19T09:20:46;2.20;;;1.70;;
15708;SDS011;7954;51.914;8.420;2023-10-19T09:23:20;2.90;;;1.87;;
15708;SDS011;7954;51.914;8.420;2023-10-19T09:25:50;2.10;;;1.73;;
15708;SDS011;7954;51.914;8.420;2023-10-19T09:28:20;2.90;;;1.90;;
15708;SDS011;7954;51.914;8.420;2023-10-19T09:30:48;3.43;;;1.97;;
15708;SDS011;7954;51.914;8.420;2023-10-19T09:33:16;2.63;;;1.90;;
15708;SDS011;7954;51.914;8.420;2023-10-19T09:35:49;2.83;;;1.90;;
15708;SDS011;7954;51.914;8.420;2023-10-19T09:38:19;1.83;;;1.73;;
15708;SDS011;7954;51.914;8.420;2023-10-19T09:40:50;2.70;;;2.27;;
15708;SDS011;7954;51.914;8.420;2023-10-19T09:43:21;1.87;;;1.67;;
15708;SDS011;7954;51.914;8.420;2023-10-19T09:45:52;2.10;;;1.90;;
15708;SDS011;7954;51.914;8.420;2023-10-19T09:48:20;2.00;;;1.80;;
15708;SDS011;7954;51.914;8.420;2023-10-19T09:50:51;1.80;;;1.60;;
15708;SDS011;7954;51.914;8.420;2023-10-19T09:53:22;2.10;;;1.90;;
15708;SDS011;7954;51.914;8.420;2023-10-19T09:55:52;1.73;;;1.63;;
15708;SDS011;7954;51.914;8.420;2023-10-19T09:58:23;1.80;;;1.70;;
15708;SDS011;7954;51.914;8.420;2023-10-19T10:00:51;1.70;;;1.60;;
15708;SDS011;7954;51.914;8.420;2023-10-19T10:06:06;1.90;;;1.70;;
15708;SDS011;7954;51.914;8.420;2023-10-19T10:08:35;2.17;;;1.67;;
15708;SDS011;7954;51.914;8.420;2023-10-19T10:11:18;1.97;;;1.77;;
15708;SDS011;7954;51.914;8.420;2023-10-19T10:13:47;2.60;;;1.57;;
15708;SDS011;7954;51.914;8.420;2023-10-19T10:16:18;1.67;;;1.57;;
15708;SDS011;7954;51.914;8.420;2023-10-19T10:18:47;2.10;;;1.77;;
15708;SDS011;7954;51.914;8.420;2023-10-19T10:21:18;2.20;;;1.60;;
15708;SDS011;7954;51.914;8.420;2023-10-19T10:23:47;1.90;;;1.70;;
15708;SDS011;7954;51.914;8.420;2023-10-19T10:26:16;2.57;;;1.80;;
15708;SDS011;7954;51.914;8.420;2023-10-19T10:29:06;2.00;;;1.80;;
15708;SDS011;7954;51.914;8.420;2023-10-19T10:31:40;1.90;;;1.60;;
15708;SDS011;7954;51.914;8.420;2023-10-19T10:36:58;2.67;;;1.77;;
15708;SDS011;7954;51.914;8.420;2023-10-19T10:39:26;3.93;;;1.73;;
15708;SDS011;7954;51.914;8.420;2023-10-19T10:41:56;1.60;;;1.50;;
15708;SDS011;7954;51.914;8.420;2023-10-19T10:44:38;2.70;;;1.80;;
15708;SDS011;7954;51.914;8.420;2023-10-19T10:47:07;2.23;;;1.80;;
15708;SDS011;7954;51.914;8.420;2023-10-19T10:49:46;1.90;;;1.80;;
15708;SDS011;7954;51.914;8.420;2023-10-19T10:52:22;3.03;;;2.00;;
15708;SDS011;7954;51.914;8.420;2023-10-19T10:54:51;2.00;;;1.80;;
15708;SDS011;7954;51.914;8.420;2023-10-19T10:57:19;2.57;;;2.10;;
15708;SDS011;7954;51.914;8.420;2023-10-19T10:59:50;2.23;;;1.60;;
15708;SDS011;7954;51.914;8.420;2023-10-19T11:02:27;2.50;;;1.80;;
15708;SDS011;7954;51.914;8.420;2023-10-19T11:04:55;2.20;;;1.80;;
15708;SDS011;7954;51.914;8.420;2023-10-19T11:07:26;3.23;;;1.83;;
15708;SDS011;7954;51.914;8.420;2023-10-19T11:09:54;3.63;;;2.10;;
15708;SDS011;7954;51.914;8.420;2023-10-19T11:12:22;2.07;;;1.80;;
15708;SDS011;7954;51.914;8.420;2023-10-19T11:14:54;3.50;;;1.97;;
15708;SDS011;7954;51.914;8.420;2023-10-19T11:17:22;2.10;;;1.60;;
15708;SDS011;7954;51.914;8.420;2023-10-19T11:19:55;2.57;;;1.70;;
15708;SDS011;7954;51.914;8.420;2023-10-19T11:22:24;1.80;;;1.70;;
15708;SDS011;7954;51.914;8.420;2023-10-19T11:24:53;3.33;;;1.90;;
15708;SDS011;7954;51.914;8.420;2023-10-19T11:27:24;2.00;;;1.80;;
15708;SDS011;7954;51.914;8.420;2023-10-19T11:29:57;1.73;;;1.60;;
15708;SDS011;7954;51.914;8.420;2023-10-19T11:32:25;2.30;;;1.80;;
15708;SDS011;7954;51.914;8.420;2023-10-19T11:34:53;2.63;;;1.63;;
15708;SDS011;7954;51.914;8.420;2023-10-19T11:37:21;1.80;;;1.70;;
15708;SDS011;7954;51.914;8.420;2023-10-19T11:39:49;2.63;;;1.60;;
15708;SDS011;7954;51.914;8.420;2023-10-19T11:42:17;3.20;;;2.13;;
15708;SDS011;7954;51.914;8.420;2023-10-19T11:44:46;2.00;;;1.80;;
15708;SDS011;7954;51.914;8.420;2023-10-19T11:47:15;4.23;;;1.80;;
15708;SDS011;7954;51.914;8.420;2023-10-19T11:49:43;2.83;;;1.70;;
15708;SDS011;7954;51.914;8.420;2023-10-19T11:52:11;3.87;;;1.90;;
15708;SDS011;7954;51.914;8.420;2023-10-19T11:54:39;2.97;;;2.23;;
15708;SDS011;7954;51.914;8.420;2023-10-19T11:57:07;2.47;;;2.10;;
15708;SDS011;7954;51.914;8.420;2023-10-19T11:59:36;1.97;;;1.73;;
15708;SDS011;7954;51.914;8.420;2023-10-19T12:02:04;3.00;;;1.90;;
15708;SDS011;7954;51.914;8.420;2023-10-19T12:04:35;2.00;;;1.60;;
15708;SDS011;7954;51.914;8.420;2023-10-19T12:07:03;2.50;;;1.90;;
15708;SDS011;7954;51.914;8.420;2023-10-19T12:09:32;1.93;;;1.60;;
15708;SDS011;7954;51.914;8.420;2023-10-19T12:11:59;2.60;;;1.87;;
15708;SDS011;7954;51.914;8.420;2023-10-19T12:14:29;1.97;;;1.57;;
15708;SDS011;7954;51.914;8.420;2023-10-19T12:16:59;4.20;;;1.80;;
15708;SDS011;7954;51.914;8.420;2023-10-19T12:19:29;1.70;;;1.60;;
15708;SDS011;7954;51.914;8.420;2023-10-19T12:21:59;1.93;;;1.70;;
15708;SDS011;7954;51.914;8.420;2023-10-19T12:24:27;2.10;;;1.43;;
15708;SDS011;7954;51.914;8.420;2023-10-19T12:26:56;2.40;;;1.70;;
15708;SDS011;7954;51.914;8.420;2023-10-19T12:29:23;2.27;;;1.80;;
15708;SDS011;7954;51.914;8.420;2023-10-19T12:31:52;2.70;;;1.60;;
15708;SDS011;7954;51.914;8.420;2023-10-19T12:34:20;2.70;;;2.03;;
15708;SDS011;7954;51.914;8.420;2023-10-19T12:36:49;2.07;;;1.63;;
15708;SDS011;7954;51.914;8.420;2023-10-19T12:39:20;2.07;;;1.87;;
15708;SDS011;7954;51.914;8.420;2023-10-19T12:42:13;2.37;;;1.63;;
15708;SDS011;7954;51.914;8.420;2023-10-19T12:44:41;1.90;;;1.70;;
15708;SDS011;7954;51.914;8.420;2023-10-19T12:47:13;2.77;;;1.90;;
15708;SDS011;7954;51.914;8.420;2023-10-19T12:49:42;1.73;;;1.57;;
15708;SDS011;7954;51.914;8.420;2023-10-19T12:52:11;2.93;;;1.40;;
15708;SDS011;7954;51.914;8.420;2023-10-19T12:54:39;4.10;;;1.70;;
15708;SDS011;7954;51.914;8.420;2023-10-19T12:57:10;2.70;;;1.93;;
15708;SDS011;7954;51.914;8.420;2023-10-19T12:59:40;2.77;;;1.83;;
15708;SDS011;7954;51.914;8.420;2023-10-19T13:02:10;3.90;;;2.00;;
15708;SDS011;7954;51.914;8.420;2023-10-19T13:04:41;1.87;;;1.50;;
15708;SDS011;7954;51.914;8.420;2023-10-19T13:07:13;2.57;;;1.57;;
15708;SDS011;7954;51.914;8.420;2023-10-19T13:09:40;4.73;;;1.77;;
15708;SDS011;7954;51.914;8.420;2023-10-19T13:12:11;2.97;;;1.60;;
15708;SDS011;7954;51.914;8.420;2023-10-19T13:14:40;2.93;;;1.73;;
15708;SDS011;7954;51.914;8.420;2023-10-19T13:17:10;2.78;;;1.80;;
15708;SDS011;7954;51.914;8.420;2023-10-19T13:19:38;3.00;;;1.80;;
15708;SDS011;7954;51.914;8.420;2023-10-19T13:22:06;3.90;;;1.60;;
15708;SDS011;7954;51.914;8.420;2023-10-19T13:24:34;2.93;;;1.73;;
15708;SDS011;7954;51.914;8.420;2023-10-19T13:27:07;3.20;;;1.80;;
15708;SDS011;7954;51.914;8.420;2023-10-19T13:29:36;2.77;;;1.90;;
15708;SDS011;7954;51.914;8.420;2023-10-19T13:32:10;2.60;;;1.60;;
15708;SDS011;7954;51.914;8.420;2023-10-19T13:34:38;2.77;;;1.60;;
15708;SDS011;7954;51.914;8.420;2023-10-19T13:37:07;2.67;;;1.70;;
15708;SDS011;7954;51.914;8.420;2023-10-19T13:39:35;2.80;;;1.63;;
15708;SDS011;7954;51.914;8.420;2023-10-19T13:42:06;4.10;;;1.97;;
15708;SDS011;7954;51.914;8.420;2023-10-19T13:44:35;5.00;;;1.90;;
15708;SDS011;7954;51.914;8.420;2023-10-19T13:47:03;2.63;;;1.60;;
15708;SDS011;7954;51.914;8.420;2023-10-19T13:49:33;2.63;;;1.53;;
15708;SDS011;7954;51.914;8.420;2023-10-19T13:52:02;3.93;;;1.60;;
15708;SDS011;7954;51.914;8.420;2023-10-19T13:54:31;4.33;;;1.97;;
15708;SDS011;7954;51.914;8.420;2023-10-19T13:56:59;2.37;;;1.77;;
15708;SDS011;7954;51.914;8.420;2023-10-19T13:59:27;4.13;;;2.27;;
15708;SDS011;7954;51.914;8.420;2023-10-19T14:01:56;2.73;;;1.90;;
15708;SDS011;7954;51.914;8.420;2023-10-19T14:04:26;3.83;;;2.37;;
15708;SDS011;7954;51.914;8.420;2023-10-19T14:06:56;2.30;;;1.73;;
15708;SDS011;7954;51.914;8.420;2023-10-19T14:09:24;2.57;;;1.63;;
15708;SDS011;7954;51.914;8.420;2023-10-19T14:11:52;3.33;;;1.60;;
15708;SDS011;7954;51.914;8.420;2023-10-19T14:14:20;2.73;;;1.87;;
15708;SDS011;7954;51.914;8.420;2023-10-19T14:16:48;2.00;;;1.50;;
15708;SDS011;7954;51.914;8.420;2023-10-19T14:19:16;3.87;;;1.77;;
15708;SDS011;7954;51.914;8.420;2023-10-19T14:21:45;2.03;;;1.60;;
15708;SDS011;7954;51.914;8.420;2023-10-19T14:24:15;5.43;;;1.70;;
15708;SDS011;7954;51.914;8.420;2023-10-19T14:26:44;3.17;;;2.00;;
15708;SDS011;7954;51.914;8.420;2023-10-19T14:29:12;3.40;;;1.90;;
15708;SDS011;7954;51.914;8.420;2023-10-19T14:31:40;2.43;;;1.77;;
15708;SDS011;7954;51.914;8.420;2023-10-19T14:34:09;3.53;;;1.70;;
15708;SDS011;7954;51.914;8.420;2023-10-19T14:36:37;2.13;;;1.73;;
15708;SDS011;7954;51.914;8.420;2023-10-19T14:39:05;3.07;;;1.63;;
15708;SDS011;7954;51.914;8.420;2023-10-19T14:41:36;3.67;;;2.00;;
15708;SDS011;7954;51.914;8.420;2023-10-19T14:44:05;2.50;;;1.87;;
15708;SDS011;7954;51.914;8.420;2023-10-19T14:46:33;3.00;;;1.87;;
15708;SDS011;7954;51.914;8.420;2023-10-19T14:49:01;2.30;;;1.70;;
15708;SDS011;7954;51.914;8.420;2023-10-19T14:51:28;4.00;;;2.20;;
15708;SDS011;7954;51.914;8.420;2023-10-19T14:53:56;2.93;;;2.50;;
15708;SDS011;7954;51.914;8.420;2023-10-19T14:56:24;4.43;;;1.97;;
15708;SDS011;7954;51.914;8.420;2023-10-19T14:58:54;2.40;;;1.60;;
15708;SDS011;7954;51.914;8.420;2023-10-19T15:01:22;2.63;;;2.20;;
15708;SDS011;7954;51.914;8.420;2023-10-19T15:03:52;2.77;;;1.73;;
15708;SDS011;7954;51.914;8.420;2023-10-19T15:06:20;2.13;;;1.63;;
15708;SDS011;7954;51.914;8.420;2023-10-19T15:08:48;2.47;;;1.90;;
15708;SDS011;7954;51.914;8.420;2023-10-19T15:11:16;2.90;;;2.10;;
15708;SDS011;7954;51.914;8.420;2023-10-19T15:13:44;2.57;;;1.73;;
15708;SDS011;7954;51.914;8.420;2023-10-19T15:16:14;3.80;;;1.83;;
15708;SDS011;7954;51.914;8.420;2023-10-19T15:18:43;4.27;;;2.47;;
15708;SDS011;7954;51.914;8.420;2023-10-19T15:21:11;4.40;;;1.90;;
15708;SDS011;7954;51.914;8.420;2023-10-19T15:23:40;3.80;;;2.20;;